Time;durP1;ratioP1;P1;durP2;ratioP2;P2;SDS_P1;SDS_P2;PMS_P1;PMS_P2;Temp;Humidity;BMP_temperature;BMP_pressure;BME280_temperature;BME280_humidity;BME280_pressure;Samples;Min_cycle;Max_cycle;Signal;HPM_P1;HPM_P2
2022/05/31 00:01:14;;;;;;;3.27;2.10;;;10.60;99.90;;;;;;5035456;28;20317;-69
2022/05/31 00:03:40;;;;;;;2.70;1.57;;;10.60;99.90;;;;;;5035244;28;20203;-69
2022/05/31 00:06:05;;;;;;;2.40;1.70;;;10.70;99.90;;;;;;5032905;28;20461;-69
2022/05/31 00:08:32;;;;;;;2.33;1.97;;;10.70;99.90;;;;;;5033289;28;20187;-69
2022/05/31 00:11:00;;;;;;;2.07;1.90;;;10.70;99.90;;;;;;5033384;28;20167;-69
2022/05/31 00:13:26;;;;;;;1.87;1.70;;;10.60;99.90;;;;;;5034127;28;20414;-69
2022/05/31 00:15:52;;;;;;;1.70;1.40;;;10.70;99.90;;;;;;5036344;28;20410;-69
2022/05/31 00:18:17;;;;;;;1.67;1.57;;;10.70;99.90;;;;;;5035946;28;20412;-69
2022/05/31 00:20:42;;;;;;;1.93;1.57;;;10.70;99.90;;;;;;5033615;28;20193;-68
2022/05/31 00:23:08;;;;;;;2.93;2.10;;;10.70;99.90;;;;;;5032834;28;20254;-67
2022/05/31 00:25:34;;;;;;;2.60;1.50;;;10.80;99.90;;;;;;5032700;28;20666;-68
2022/05/31 00:27:59;;;;;;;1.20;1.10;;;10.80;99.90;;;;;;5032500;28;20671;-69
2022/05/31 00:30:25;;;;;;;2.30;2.00;;;10.80;99.90;;;;;;5032566;28;20180;-69
2022/05/31 00:32:51;;;;;;;1.53;1.43;;;10.90;99.90;;;;;;5032465;28;20221;-68
2022/05/31 00:35:24;;;;;;;1.77;1.67;;;10.80;99.90;;;;;;5031980;28;20176;-67
2022/05/31 00:37:49;;;;;;;1.60;1.50;;;10.90;99.90;;;;;;5032100;28;20436;-68
2022/05/31 00:40:18;;;;;;;1.80;1.70;;;10.90;99.90;;;;;;5032698;28;20426;-68
2022/05/31 00:42:56;;;;;;;4.90;1.90;;;10.90;99.90;;;;;;5033523;28;20183;-68
2022/05/31 00:45:31;;;;;;;1.77;1.60;;;10.90;99.90;;;;;;5033080;28;20450;-68
2022/05/31 00:47:58;;;;;;;2.17;1.40;;;10.90;99.90;;;;;;5033018;28;20912;-67
2022/05/31 00:50:31;;;;;;;1.67;1.57;;;10.90;99.90;;;;;;5034151;28;20414;-68
2022/05/31 00:53:01;;;;;;;1.53;1.40;;;10.90;99.90;;;;;;5034175;28;20446;-68
2022/05/31 00:55:55;;;;;;;1.63;1.50;;;10.90;99.90;;;;;;5032479;28;20811;-68
2022/05/31 00:58:31;;;;;;;3.43;1.60;;;11.00;99.90;;;;;;5026039;28;20733;-68
2022/05/31 01:01:02;;;;;;;1.40;1.30;;;11.10;99.90;;;;;;5035505;28;20768;-68
2022/05/31 01:03:28;;;;;;;1.80;1.30;;;11.10;99.90;;;;;;5034739;28;20974;-68
2022/05/31 01:05:54;;;;;;;1.50;1.20;;;11.10;99.90;;;;;;5033263;28;20864;-68
2022/05/31 01:08:19;;;;;;;1.30;1.20;;;11.00;99.90;;;;;;5031985;28;20509;-68
2022/05/31 01:10:45;;;;;;;2.67;1.87;;;11.00;99.90;;;;;;5031732;28;20187;-68
2022/05/31 01:13:15;;;;;;;1.57;1.40;;;11.00;99.90;;;;;;5032993;28;20175;-68
2022/05/31 01:15:42;;;;;;;2.77;1.50;;;11.00;99.90;;;;;;5034050;28;20232;-68
2022/05/31 01:18:08;;;;;;;3.53;1.30;;;11.00;99.90;;;;;;5034776;28;20580;-68
2022/05/31 01:20:34;;;;;;;1.40;1.30;;;11.00;99.90;;;;;;5035262;28;20497;-69
2022/05/31 01:23:11;;;;;;;1.50;1.07;;;11.00;99.90;;;;;;5032609;28;20787;-68
2022/05/31 01:25:55;;;;;;;1.37;1.27;;;11.00;99.90;;;;;;5031464;28;20700;-68
2022/05/31 01:28:31;;;;;;;1.40;1.20;;;11.00;99.90;;;;;;5031873;28;20488;-68
2022/05/31 01:31:06;;;;;;;1.77;1.20;;;11.10;99.90;;;;;;5032179;28;20410;-68
2022/05/31 01:33:58;;;;;;;1.20;1.10;;;11.10;99.90;;;;;;5031807;28;20986;-68
2022/05/31 01:36:33;;;;;;;1.83;1.60;;;11.10;99.90;;;;;;5031801;28;20422;-68
2022/05/31 01:39:12;;;;;;;2.13;1.87;;;11.10;99.90;;;;;;5032383;28;20532;-68
2022/05/31 01:41:44;;;;;;;5.13;2.00;;;11.00;99.90;;;;;;5031842;28;20458;-68
2022/05/31 01:44:15;;;;;;;3.50;2.30;;;11.00;99.90;;;;;;5032216;28;20940;-68
2022/05/31 01:46:44;;;;;;;2.83;2.37;;;11.00;99.90;;;;;;5032483;28;20466;-67
2022/05/31 01:49:13;;;;;;;3.53;3.20;;;11.00;99.90;;;;;;5033389;28;20539;-69
2022/05/31 01:51:40;;;;;;;6.37;2.27;;;11.00;99.90;;;;;;5032804;28;20513;-69
2022/05/31 01:54:12;;;;;;;3.07;1.73;;;10.90;99.90;;;;;;5034153;28;20510;-69
2022/05/31 01:56:41;;;;;;;2.33;1.60;;;10.90;99.90;;;;;;5034436;28;20418;-69
2022/05/31 01:59:06;;;;;;;1.20;1.10;;;10.90;99.90;;;;;;5034829;28;20855;-69
2022/05/31 02:01:37;;;;;;;1.80;1.30;;;10.90;99.90;;;;;;5035261;28;20506;-69
2022/05/31 02:04:03;;;;;;;1.73;1.63;;;10.90;99.90;;;;;;5038330;28;20294;-68
2022/05/31 02:06:33;;;;;;;1.80;1.63;;;10.80;99.90;;;;;;5038019;28;20437;-68
2022/05/31 02:08:59;;;;;;;2.20;1.67;;;10.80;99.90;;;;;;5034983;28;20761;-69
2022/05/31 02:11:26;;;;;;;1.30;1.20;;;10.70;99.90;;;;;;5034938;28;20917;-69
2022/05/31 02:13:51;;;;;;;1.63;1.47;;;10.60;99.90;;;;;;5034557;28;20410;-68
2022/05/31 02:16:17;;;;;;;2.47;1.57;;;10.60;99.90;;;;;;5034290;28;20475;-69
2022/05/31 02:21:35;;;;;;;2.20;2.00;;;10.50;99.90;;;;;;5034999;28;20452;-68
2022/05/31 02:24:02;;;;;;;2.10;1.90;;;10.50;99.90;;;;;;5034768;28;20460;-68
2022/05/31 02:26:27;;;;;;;2.90;2.60;;;10.50;99.90;;;;;;5034226;28;20425;-68
2022/05/31 02:28:53;;;;;;;2.53;2.33;;;10.40;99.90;;;;;;5034330;28;20414;-68
2022/05/31 02:31:18;;;;;;;2.00;1.80;;;10.30;99.90;;;;;;5034049;28;20295;-68
2022/05/31 02:33:44;;;;;;;2.50;2.13;;;10.30;99.90;;;;;;5034397;28;20165;-68
2022/05/31 02:36:09;;;;;;;2.40;2.20;;;10.30;99.90;;;;;;5033672;28;20685;-70
2022/05/31 02:38:34;;;;;;;2.30;2.10;;;10.20;99.90;;;;;;5033720;28;20195;-68
2022/05/31 02:41:00;;;;;;;4.40;1.97;;;10.20;99.90;;;;;;5033647;28;20167;-69
2022/05/31 02:43:25;;;;;;;2.50;1.83;;;10.20;99.90;;;;;;5033768;28;20187;-69
2022/05/31 02:45:51;;;;;;;5.03;3.07;;;10.20;99.90;;;;;;5033005;28;20231;-69
2022/05/31 02:48:16;;;;;;;4.60;2.70;;;10.10;99.90;;;;;;5033574;28;20171;-69
2022/05/31 02:50:43;;;;;;;2.50;2.00;;;10.20;99.90;;;;;;5033702;28;20160;-69
2022/05/31 02:53:08;;;;;;;2.23;2.03;;;10.20;99.90;;;;;;5033575;28;20246;-69
2022/05/31 02:55:34;;;;;;;2.37;2.17;;;10.20;99.90;;;;;;5033379;28;20514;-69
2022/05/31 02:57:59;;;;;;;2.90;1.90;;;10.20;99.90;;;;;;5033572;28;20205;-69
2022/05/31 03:00:25;;;;;;;2.30;2.10;;;10.20;99.90;;;;;;5033001;28;20278;-69
2022/05/31 03:02:50;;;;;;;1.60;1.50;;;10.20;99.90;;;;;;5033541;28;20167;-69
2022/05/31 03:05:15;;;;;;;2.70;1.90;;;10.30;99.90;;;;;;5033069;28;20678;-69
2022/05/31 03:07:41;;;;;;;2.23;1.90;;;10.30;99.90;;;;;;5033373;28;20518;-69
2022/05/31 03:10:07;;;;;;;4.30;2.13;;;10.40;99.90;;;;;;5032835;28;20168;-69
2022/05/31 03:12:33;;;;;;;1.60;1.50;;;10.30;99.90;;;;;;5033081;28;20242;-69
2022/05/31 03:15:06;;;;;;;3.00;2.50;;;10.40;99.90;;;;;;5032755;28;20199;-69
2022/05/31 03:17:37;;;;;;;3.17;1.97;;;10.50;99.90;;;;;;5033666;28;20615;-69
2022/05/31 03:20:18;;;;;;;2.73;1.70;;;10.50;99.90;;;;;;5033207;28;20406;-69
2022/05/31 03:22:47;;;;;;;5.30;2.50;;;10.60;99.90;;;;;;5033064;28;20617;-69
2022/05/31 03:25:20;;;;;;;1.93;1.53;;;10.60;99.90;;;;;;5032660;28;20446;-69
2022/05/31 03:27:46;;;;;;;1.93;1.83;;;10.70;99.90;;;;;;5033065;28;20434;-69
2022/05/31 03:30:13;;;;;;;2.30;1.80;;;10.80;99.90;;;;;;5033251;28;20763;-69
2022/05/31 03:32:39;;;;;;;4.03;1.87;;;10.80;99.90;;;;;;5033656;28;20493;-69
2022/05/31 03:35:05;;;;;;;2.83;2.20;;;10.90;99.90;;;;;;5032896;28;20496;-69
2022/05/31 03:37:31;;;;;;;2.90;2.17;;;10.90;99.90;;;;;;5032941;28;20203;-69
2022/05/31 03:39:56;;;;;;;2.60;2.20;;;11.00;99.90;;;;;;5032665;28;20468;-69
2022/05/31 03:42:22;;;;;;;1.67;1.57;;;11.00;99.90;;;;;;5033033;28;20178;-69
2022/05/31 03:44:47;;;;;;;2.87;1.67;;;11.10;99.90;;;;;;5033031;28;20697;-69
2022/05/31 03:47:13;;;;;;;1.27;1.17;;;11.20;99.90;;;;;;5033309;28;20266;-69
2022/05/31 03:49:38;;;;;;;2.00;1.90;;;11.20;99.90;;;;;;5033171;28;20217;-69
2022/05/31 03:52:04;;;;;;;1.60;1.50;;;11.30;99.90;;;;;;5035974;28;20164;-69
2022/05/31 03:54:30;;;;;;;1.73;1.63;;;11.40;99.90;;;;;;5035615;28;20203;-69
2022/05/31 03:56:56;;;;;;;1.70;1.60;;;11.40;99.90;;;;;;5032979;28;20442;-69
2022/05/31 03:59:21;;;;;;;1.30;1.20;;;11.50;99.90;;;;;;5032671;28;20406;-69
2022/05/31 04:01:47;;;;;;;2.20;1.83;;;11.50;99.90;;;;;;5032583;28;20180;-69
2022/05/31 04:04:12;;;;;;;1.77;1.40;;;11.60;99.90;;;;;;5032452;28;20669;-69
2022/05/31 04:06:38;;;;;;;1.77;1.67;;;11.60;99.90;;;;;;5032141;28;20195;-69
2022/05/31 04:09:04;;;;;;;1.17;1.07;;;11.60;99.90;;;;;;5032432;28;20208;-69
2022/05/31 04:11:30;;;;;;;1.73;1.33;;;11.60;99.90;;;;;;5031255;28;20789;-69
2022/05/31 04:13:56;;;;;;;2.50;1.80;;;11.70;99.90;;;;;;5032704;28;20665;-69
2022/05/31 04:16:21;;;;;;;1.47;1.37;;;11.80;99.90;;;;;;5032182;28;20426;-69
2022/05/31 04:18:47;;;;;;;2.63;1.60;;;11.90;99.90;;;;;;5032338;28;20509;-67
2022/05/31 04:21:16;;;;;;;2.20;1.57;;;12.00;99.90;;;;;;5032295;28;20539;-68
2022/05/31 04:23:58;;;;;;;2.93;1.90;;;12.10;99.90;;;;;;5032206;28;20417;-68
2022/05/31 04:26:29;;;;;;;2.40;1.70;;;12.00;99.90;;;;;;5032391;28;20520;-68
2022/05/31 04:28:56;;;;;;;2.20;1.37;;;12.10;99.90;;;;;;5032463;28;20809;-68
2022/05/31 04:31:22;;;;;;;2.30;2.00;;;12.20;99.90;;;;;;5032317;28;20403;-69
2022/05/31 04:33:47;;;;;;;2.80;1.37;;;12.30;99.90;;;;;;5032060;28;20448;-69
2022/05/31 04:36:15;;;;;;;2.17;1.90;;;12.70;99.90;;;;;;5032030;28;21002;-69
2022/05/31 04:38:41;;;;;;;2.73;1.50;;;13.40;99.90;;;;;;5032491;28;20172;-69
2022/05/31 04:41:07;;;;;;;2.50;1.60;;;13.50;99.90;;;;;;5032078;28;20417;-69
2022/05/31 04:43:33;;;;;;;2.23;1.53;;;13.50;99.90;;;;;;5032224;28;20167;-69
2022/05/31 04:46:13;;;;;;;4.03;1.90;;;13.40;99.90;;;;;;5031564;28;20454;-68
2022/05/31 04:48:38;;;;;;;2.93;1.70;;;13.20;99.90;;;;;;5031718;28;20188;-69
2022/05/31 04:51:04;;;;;;;1.90;1.70;;;13.30;99.90;;;;;;5031876;28;20893;-69
2022/05/31 04:53:29;;;;;;;1.37;1.27;;;13.70;99.90;;;;;;5031607;28;20215;-68
2022/05/31 04:56:07;;;;;;;2.87;1.70;;;13.80;99.90;;;;;;5031240;28;20195;-69
2022/05/31 04:58:33;;;;;;;1.20;1.10;;;13.80;99.90;;;;;;5031809;28;20167;-68
2022/05/31 05:01:02;;;;;;;1.33;1.23;;;14.10;99.90;;;;;;5031813;28;20840;-69
2022/05/31 05:03:29;;;;;;;1.17;0.90;;;14.50;99.90;;;;;;5031506;28;20411;-69
2022/05/31 05:05:59;;;;;;;2.30;1.43;;;14.70;99.90;;;;;;5031048;28;20454;-69
2022/05/31 05:08:24;;;;;;;1.30;1.20;;;15.10;99.90;;;;;;5031816;28;20414;-69
2022/05/31 05:10:50;;;;;;;1.30;1.10;;;16.20;99.90;;;;;;5031452;28;20409;-69
2022/05/31 05:13:15;;;;;;;1.40;1.30;;;15.80;99.90;;;;;;5031480;28;20184;-69
2022/05/31 05:15:41;;;;;;;1.30;1.20;;;15.60;99.90;;;;;;5031189;28;20184;-68
2022/05/31 05:18:07;;;;;;;1.03;1.03;;;15.70;99.90;;;;;;5031283;28;20200;-68
2022/05/31 05:20:38;;;;;;;2.10;1.03;;;15.60;99.90;;;;;;5031231;28;20432;-69
2022/05/31 05:23:07;;;;;;;1.30;1.20;;;15.50;99.90;;;;;;5031521;28;20253;-69
2022/05/31 05:25:33;;;;;;;1.60;1.20;;;15.70;99.90;;;;;;5031823;28;20484;-68
2022/05/31 05:27:58;;;;;;;1.30;1.20;;;16.10;99.90;;;;;;5033142;28;20437;-68
2022/05/31 05:30:39;;;;;;;1.37;1.10;;;16.80;99.90;;;;;;5032801;28;20629;-69
2022/05/31 05:33:05;;;;;;;2.60;1.30;;;16.20;99.90;;;;;;5031880;28;20517;-69
2022/05/31 05:35:30;;;;;;;3.00;1.23;;;16.50;99.90;;;;;;5031473;28;20415;-69
2022/05/31 05:37:56;;;;;;;1.37;1.20;;;16.80;99.90;;;;;;5031722;28;20431;-68
2022/05/31 05:40:21;;;;;;;1.63;1.07;;;17.30;99.90;;;;;;5034998;28;20181;-69
2022/05/31 05:42:47;;;;;;;1.30;1.10;;;17.50;99.90;;;;;;5031598;28;20182;-68
2022/05/31 05:45:12;;;;;;;1.87;1.10;;;17.40;99.90;;;;;;5031099;28;20667;-68
2022/05/31 05:47:38;;;;;;;2.00;1.53;;;18.60;99.90;;;;;;5030829;28;20207;-68
2022/05/31 05:50:05;;;;;;;1.50;1.10;;;18.20;99.90;;;;;;5030045;28;20267;-68
2022/05/31 05:52:35;;;;;;;1.90;1.00;;;18.60;99.90;;;;;;5031298;28;20185;-68
2022/05/31 05:55:01;;;;;;;1.57;1.00;;;18.20;99.90;;;;;;5031277;28;20464;-69
2022/05/31 05:57:26;;;;;;;1.47;1.37;;;18.50;99.90;;;;;;5031072;28;20427;-69
2022/05/31 05:59:52;;;;;;;1.30;1.20;;;18.70;99.90;;;;;;5031513;28;20413;-69
2022/05/31 06:02:28;;;;;;;3.43;1.20;;;18.40;99.90;;;;;;5031697;28;20253;-69
2022/05/31 06:05:00;;;;;;;1.13;1.03;;;18.80;99.90;;;;;;5032069;28;20202;-68
2022/05/31 06:07:30;;;;;;;2.00;1.57;;;19.30;99.90;;;;;;5031371;28;20517;-69
2022/05/31 06:10:06;;;;;;;1.20;1.07;;;18.60;99.90;;;;;;5031229;28;20414;-69
2022/05/31 06:12:38;;;;;;;2.80;1.40;;;18.80;99.90;;;;;;5031134;28;20773;-68
2022/05/31 06:15:28;;;;;;;1.70;1.10;;;18.70;99.90;;;;;;5030639;28;20418;-68
2022/05/31 06:17:56;;;;;;;3.30;1.37;;;19.50;99.90;;;;;;5030761;28;20423;-68
2022/05/31 06:20:22;;;;;;;3.10;1.10;;;17.90;99.90;;;;;;5030656;28;20412;-68
2022/05/31 06:22:48;;;;;;;2.63;1.43;;;17.70;99.90;;;;;;5030967;28;20405;-68
2022/05/31 06:25:17;;;;;;;1.20;1.10;;;18.70;99.90;;;;;;5030370;28;20556;-68
2022/05/31 06:27:42;;;;;;;2.27;1.50;;;19.40;99.90;;;;;;5030956;28;20450;-68
2022/05/31 06:30:08;;;;;;;2.20;1.10;;;19.00;99.90;;;;;;5030880;28;20488;-68
2022/05/31 06:32:34;;;;;;;2.00;1.27;;;19.40;99.90;;;;;;5030738;28;20198;-68
2022/05/31 06:34:59;;;;;;;1.67;1.30;;;19.80;99.90;;;;;;5032416;28;20415;-68
2022/05/31 06:37:28;;;;;;;2.30;2.20;;;19.30;99.90;;;;;;5034045;28;20213;-68
2022/05/31 06:39:54;;;;;;;1.40;1.07;;;18.90;99.90;;;;;;5033237;28;20183;-68
2022/05/31 06:42:20;;;;;;;1.30;1.20;;;20.20;99.90;;;;;;5034570;28;20466;-68
2022/05/31 06:44:45;;;;;;;1.13;1.00;;;20.30;99.20;;;;;;5034211;28;20209;-68
2022/05/31 06:47:11;;;;;;;2.10;1.20;;;19.80;98.10;;;;;;5034103;28;20287;-68
2022/05/31 06:49:38;;;;;;;1.53;1.00;;;19.60;99.60;;;;;;5034335;28;20170;-68
2022/05/31 06:57:38;;;;;;;1.27;1.17;;;19.50;97.40;;;;;;5034127;28;20814;-68
2022/05/31 07:00:06;;;;;;;1.83;1.10;;;19.80;97.60;;;;;;5033833;28;20446;-68
2022/05/31 07:02:32;;;;;;;1.70;1.17;;;19.50;98.30;;;;;;5033976;28;20897;-68
2022/05/31 07:04:58;;;;;;;2.57;1.17;;;19.80;97.80;;;;;;5033759;28;20472;-68
2022/05/31 07:07:23;;;;;;;2.00;1.23;;;19.50;97.70;;;;;;5033953;28;20432;-69
2022/05/31 07:09:49;;;;;;;2.10;1.00;;;20.30;96.30;;;;;;5034501;28;20170;-69
2022/05/31 07:12:14;;;;;;;2.43;1.27;;;20.70;97.30;;;;;;5034191;28;20794;-69
2022/05/31 07:14:40;;;;;;;1.03;0.93;;;20.40;95.50;;;;;;5033926;28;20179;-69
2022/05/31 07:17:05;;;;;;;3.97;0.90;;;21.50;92.90;;;;;;5033865;28;20700;-69
2022/05/31 07:19:31;;;;;;;1.40;0.90;;;21.60;92.40;;;;;;5034064;28;20193;-68
2022/05/31 07:21:58;;;;;;;1.10;1.00;;;22.40;93.20;;;;;;5033956;28;20186;-68
2022/05/31 07:24:25;;;;;;;1.30;1.03;;;20.90;91.90;;;;;;5036333;28;20240;-69
2022/05/31 07:26:50;;;;;;;2.47;1.13;;;19.70;92.90;;;;;;5037991;28;20478;-68
2022/05/31 07:29:16;;;;;;;1.20;1.00;;;19.10;93.60;;;;;;5039149;28;20418;-68
2022/05/31 07:31:44;;;;;;;2.37;0.93;;;18.80;94.80;;;;;;5033798;28;20179;-68
2022/05/31 07:34:10;;;;;;;1.67;1.20;;;19.30;94.80;;;;;;5034609;28;20175;-68
2022/05/31 07:36:37;;;;;;;2.10;1.37;;;19.40;94.70;;;;;;5033328;28;20431;-68
2022/05/31 07:39:03;;;;;;;1.50;0.90;;;20.10;94.10;;;;;;5033636;28;20417;-68
2022/05/31 07:41:32;;;;;;;1.10;1.00;;;20.60;92.00;;;;;;5033321;28;20400;-69
2022/05/31 07:43:58;;;;;;;0.90;0.80;;;19.60;94.00;;;;;;5033382;28;20177;-69
2022/05/31 07:46:23;;;;;;;1.43;0.90;;;20.30;93.20;;;;;;5033286;28;20451;-69
2022/05/31 07:48:49;;;;;;;1.50;1.20;;;20.90;91.30;;;;;;5051975;22;20230;-71
2022/05/31 07:51:14;;;;;;;2.10;1.00;;;20.80;91.60;;;;;;5012818;28;20233;-71
2022/05/31 07:53:40;;;;;;;1.30;1.20;;;20.60;92.60;;;;;;5013299;28;20181;-71
2022/05/31 07:56:07;;;;;;;0.90;0.90;;;18.90;91.90;;;;;;5012806;28;20211;-70
2022/05/31 07:58:33;;;;;;;1.77;1.00;;;18.80;92.70;;;;;;5013046;28;20224;-70
2022/05/31 08:01:01;;;;;;;3.50;1.50;;;18.70;93.10;;;;;;5013133;28;20409;-70
2022/05/31 08:03:26;;;;;;;1.87;1.10;;;18.40;94.10;;;;;;5013187;28;20402;-70
2022/05/31 08:05:53;;;;;;;1.50;0.90;;;18.20;92.70;;;;;;5013493;28;20465;-70
2022/05/31 08:08:19;;;;;;;1.53;1.00;;;19.00;94.10;;;;;;5013297;28;20253;-70
2022/05/31 08:10:44;;;;;;;1.10;0.80;;;20.30;91.70;;;;;;5012949;28;20893;-70
2022/05/31 08:13:10;;;;;;;1.90;0.83;;;20.80;88.20;;;;;;5013035;28;20529;-70
2022/05/31 08:15:35;;;;;;;1.20;0.80;;;20.30;92.10;;;;;;5013039;28;20267;-71
2022/05/31 08:18:01;;;;;;;1.10;1.00;;;19.30;90.40;;;;;;5012648;28;20191;-70
2022/05/31 08:20:26;;;;;;;1.10;1.00;;;19.00;91.90;;;;;;5012506;28;20254;-70
2022/05/31 08:22:52;;;;;;;1.23;1.00;;;19.60;91.20;;;;;;5013022;28;20174;-72
2022/05/31 08:25:17;;;;;;;2.20;1.00;;;19.70;93.20;;;;;;5012096;28;20299;-70
2022/05/31 08:27:43;;;;;;;1.30;0.97;;;19.60;91.40;;;;;;5012519;28;20193;-71
2022/05/31 08:30:08;;;;;;;2.60;1.10;;;19.40;89.50;;;;;;5012525;28;20185;-71
2022/05/31 08:32:36;;;;;;;1.43;0.90;;;19.00;91.10;;;;;;5012889;28;20162;-70
2022/05/31 08:35:02;;;;;;;1.30;1.00;;;19.00;91.70;;;;;;5012303;28;20164;-71
2022/05/31 08:37:27;;;;;;;2.17;1.13;;;20.10;91.10;;;;;;5012268;28;20948;-71
2022/05/31 08:39:53;;;;;;;1.10;1.00;;;20.40;88.50;;;;;;5012768;28;20895;-71
2022/05/31 08:42:27;;;;;;;2.50;1.00;;;19.80;87.80;;;;;;5011739;28;20251;-71
2022/05/31 08:45:03;;;;;;;2.70;1.00;;;21.00;89.10;;;;;;5012619;28;20202;-71
2022/05/31 08:47:45;;;;;;;0.80;0.80;;;20.70;85.30;;;;;;5012219;28;20440;-71
2022/05/31 08:53:26;;;;;;;2.23;0.93;;;20.50;89.60;;;;;;5012517;28;20867;-71
2022/05/31 08:59:14;;;;;;;1.63;0.90;;;21.00;84.00;;;;;;5012141;28;20872;-71
2022/05/31 09:01:57;;;;;;;1.07;0.97;;;20.60;83.40;;;;;;5012034;28;20425;-71
2022/05/31 09:04:36;;;;;;;1.07;0.70;;;20.50;84.30;;;;;;5012073;28;20469;-71
2022/05/31 09:07:07;;;;;;;1.23;1.00;;;20.60;84.20;;;;;;5010828;28;20514;-70
2022/05/31 09:09:51;;;;;;;3.90;1.10;;;20.90;83.90;;;;;;5012270;28;20419;-70
2022/05/31 09:12:37;;;;;;;1.00;0.80;;;21.30;82.00;;;;;;5011982;28;20419;-70
2022/05/31 09:15:46;;;;;;;1.10;1.00;;;21.00;80.40;;;;;;5011622;28;20414;-71
2022/05/31 09:18:38;;;;;;;1.10;1.00;;;20.70;82.30;;;;;;5008737;28;20453;-71
2022/05/31 09:21:04;;;;;;;2.43;0.97;;;19.60;85.00;;;;;;5011684;28;20416;-70
2022/05/31 09:23:38;;;;;;;2.10;1.40;;;19.70;85.90;;;;;;5011627;28;20778;-70
2022/05/31 09:26:28;;;;;;;3.43;1.00;;;20.10;85.90;;;;;;5011101;28;20439;-70
2022/05/31 09:29:06;;;;;;;1.10;1.00;;;20.80;88.50;;;;;;5011613;28;20427;-70
2022/05/31 09:31:49;;;;;;;0.83;0.70;;;21.80;82.30;;;;;;5011453;28;20576;-70
2022/05/31 09:34:33;;;;;;;3.07;1.10;;;20.10;80.50;;;;;;5011543;28;20416;-71
2022/05/31 09:37:43;;;;;;;0.80;0.80;;;20.00;80.20;;;;;;5011580;28;20411;-70
2022/05/31 09:40:40;;;;;;;1.43;0.77;;;19.40;82.20;;;;;;5011708;28;20424;-71
2022/05/31 09:43:35;;;;;;;5.60;0.93;;;19.20;86.20;;;;;;4999937;28;20752;-71
2022/05/31 09:46:06;;;;;;;1.03;0.90;;;19.80;83.90;;;;;;5011262;28;20932;-71
2022/05/31 09:48:32;;;;;;;1.43;1.33;;;20.10;83.20;;;;;;5011226;28;20440;-71
2022/05/31 09:51:13;;;;;;;5.23;1.70;;;20.60;79.90;;;;;;5011455;28;20402;-71
2022/05/31 09:59:20;;;;;;;1.33;1.17;;;20.30;78.80;;;;;;5011483;28;20472;-72
2022/05/31 10:01:47;;;;;;;1.53;1.20;;;20.40;78.90;;;;;;5011284;28;20418;-71
2022/05/31 10:04:27;;;;;;;2.83;0.90;;;20.60;81.20;;;;;;5011325;28;20536;-71
2022/05/31 10:06:59;;;;;;;2.00;1.20;;;20.80;80.00;;;;;;5011373;28;20904;-71
2022/05/31 10:09:37;;;;;;;1.20;1.10;;;21.20;79.50;;;;;;5012378;28;20420;-71
2022/05/31 10:12:26;;;;;;;1.93;1.83;;;21.10;80.50;;;;;;5014730;28;20447;-71
2022/05/31 10:14:54;;;;;;;2.07;1.30;;;20.30;80.20;;;;;;5007260;28;20429;-71
2022/05/31 10:17:42;;;;;;;1.67;1.10;;;20.90;77.80;;;;;;5014910;28;20898;-71
2022/05/31 10:20:26;;;;;;;1.93;0.97;;;20.10;79.80;;;;;;5015013;28;20835;-71
2022/05/31 10:23:00;;;;;;;1.80;1.20;;;20.20;80.50;;;;;;5014926;28;20495;-71
2022/05/31 10:25:44;;;;;;;2.00;1.27;;;20.50;76.50;;;;;;5014326;28;20464;-70
2022/05/31 10:28:31;;;;;;;2.23;1.07;;;20.20;78.30;;;;;;5014757;28;20418;-71
2022/05/31 10:31:03;;;;;;;1.30;1.20;;;20.40;77.90;;;;;;5014849;28;20408;-71
2022/05/31 10:33:30;;;;;;;1.93;1.40;;;20.40;77.60;;;;;;5014527;28;20415;-71
2022/05/31 10:36:15;;;;;;;1.93;1.00;;;20.60;79.20;;;;;;5014468;28;20501;-70
2022/05/31 10:38:44;;;;;;;1.27;1.17;;;19.60;77.10;;;;;;5014471;28;20432;-71
2022/05/31 10:41:19;;;;;;;2.23;1.10;;;19.30;78.70;;;;;;5014695;28;20412;-71
2022/05/31 10:43:50;;;;;;;3.10;2.23;;;19.40;81.10;;;;;;5014693;28;20401;-71
2022/05/31 10:46:29;;;;;;;2.10;1.43;;;19.80;81.80;;;;;;5014106;28;20504;-71
2022/05/31 10:48:58;;;;;;;1.83;1.40;;;19.60;78.60;;;;;;5014352;28;20866;-71
2022/05/31 10:51:50;;;;;;;1.60;1.20;;;19.30;81.10;;;;;;5014259;28;20881;-71
2022/05/31 10:54:27;;;;;;;0.80;0.77;;;19.70;79.50;;;;;;5014220;28;20715;-71
2022/05/31 10:57:13;;;;;;;1.50;1.40;;;19.20;78.50;;;;;;5014189;28;20409;-71
2022/05/31 10:59:47;;;;;;;1.23;1.13;;;19.90;77.10;;;;;;5014146;28;20418;-71
2022/05/31 11:02:49;;;;;;;2.27;1.20;;;20.70;78.40;;;;;;5014292;28;20404;-71
2022/05/31 11:05:19;;;;;;;2.10;1.07;;;20.70;79.20;;;;;;5014003;28;20524;-71
2022/05/31 11:14:14;;;;;;;1.43;1.00;;;20.20;81.40;;;;;;5014076;28;20401;-70
2022/05/31 11:16:52;;;;;;;1.63;0.80;;;20.30;78.60;;;;;;5013800;28;20897;-71
2022/05/31 11:19:33;;;;;;;1.10;0.90;;;20.60;76.60;;;;;;5014060;28;20505;-70
2022/05/31 11:22:15;;;;;;;1.90;1.03;;;20.00;75.60;;;;;;5013454;28;20398;-70
2022/05/31 11:24:59;;;;;;;1.20;1.10;;;19.70;79.10;;;;;;5013436;28;20967;-71
2022/05/31 11:27:56;;;;;;;2.93;1.00;;;19.80;80.00;;;;;;5013890;28;20788;-71
2022/05/31 11:30:25;;;;;;;2.17;1.20;;;20.10;76.40;;;;;;5014214;28;20467;-71
2022/05/31 11:32:54;;;;;;;1.20;1.03;;;20.00;77.90;;;;;;5013436;28;20455;-71
2022/05/31 11:35:38;;;;;;;1.23;1.13;;;20.00;77.50;;;;;;5013335;28;20414;-70
2022/05/31 11:38:49;;;;;;;1.50;1.40;;;19.40;78.30;;;;;;5013673;28;20432;-70
2022/05/31 11:41:42;;;;;;;1.97;1.33;;;19.60;76.80;;;;;;4976108;28;20448;-70
2022/05/31 11:44:41;;;;;;;1.10;1.00;;;20.00;78.20;;;;;;5012644;28;20408;-70
2022/05/31 11:47:25;;;;;;;0.93;0.90;;;20.40;75.30;;;;;;5013452;28;20415;-70
2022/05/31 11:50:16;;;;;;;1.53;1.07;;;20.60;77.00;;;;;;5013642;28;20403;-70
2022/05/31 11:53:29;;;;;;;1.40;1.10;;;20.10;74.30;;;;;;5013215;28;20415;-70
2022/05/31 11:56:02;;;;;;;1.83;1.20;;;19.50;79.10;;;;;;5012555;28;20405;-70
2022/05/31 11:58:43;;;;;;;2.27;1.17;;;20.30;78.10;;;;;;5012876;28;20417;-70
2022/05/31 12:01:22;;;;;;;1.10;0.90;;;21.00;73.90;;;;;;5012873;28;20419;-70
2022/05/31 12:04:25;;;;;;;1.30;1.20;;;21.00;73.50;;;;;;5012881;28;20410;-70
2022/05/31 12:07:04;;;;;;;1.20;1.03;;;21.40;75.80;;;;;;5012823;28;20414;-70
2022/05/31 12:09:37;;;;;;;1.23;1.13;;;20.60;73.60;;;;;;5012910;28;20400;-70
2022/05/31 12:12:09;;;;;;;4.23;1.10;;;20.50;76.70;;;;;;5012842;28;20535;-70
2022/05/31 12:14:44;;;;;;;1.70;1.37;;;19.20;76.50;;;;;;5012730;28;20896;-71
2022/05/31 12:17:10;;;;;;;1.43;1.33;;;19.80;77.40;;;;;;5012967;28;20920;-70
2022/05/31 12:19:50;;;;;;;1.30;1.13;;;19.70;77.00;;;;;;5012966;28;20414;-70
2022/05/31 12:22:25;;;;;;;1.40;1.30;;;19.90;77.30;;;;;;5012968;28;20828;-70
2022/05/31 12:25:03;;;;;;;1.50;1.27;;;19.00;75.60;;;;;;5012398;28;20476;-70
2022/05/31 12:27:39;;;;;;;1.20;1.00;;;19.00;78.50;;;;;;5012548;28;20419;-71
2022/05/31 12:30:20;;;;;;;1.00;1.00;;;19.00;78.70;;;;;;5012663;28;20412;-71
2022/05/31 12:32:53;;;;;;;1.30;1.20;;;19.50;76.70;;;;;;5012193;28;20740;-71
2022/05/31 12:35:30;;;;;;;1.30;1.20;;;20.00;75.80;;;;;;5012561;28;20490;-71
2022/05/31 12:38:02;;;;;;;1.97;1.57;;;20.30;77.30;;;;;;5012440;28;20441;-71
2022/05/31 12:40:39;;;;;;;1.37;1.03;;;20.70;76.30;;;;;;5012394;28;20412;-71
2022/05/31 12:43:10;;;;;;;1.33;1.23;;;21.00;76.20;;;;;;5012302;28;20415;-71
2022/05/31 12:45:35;;;;;;;1.27;1.17;;;20.70;74.40;;;;;;5012033;28;20542;-70
2022/05/31 12:48:12;;;;;;;1.83;1.20;;;20.60;78.20;;;;;;5012162;28;20902;-70
2022/05/31 12:50:55;;;;;;;1.20;1.10;;;20.60;76.00;;;;;;5012697;28;20183;-71
2022/05/31 12:53:37;;;;;;;1.27;1.17;;;20.80;76.50;;;;;;5012008;28;20416;-70
2022/05/31 12:56:05;;;;;;;2.20;0.90;;;20.30;73.90;;;;;;5012009;28;20490;-70
2022/05/31 12:58:42;;;;;;;2.10;1.30;;;20.50;73.80;;;;;;5011571;28;20458;-71
2022/05/31 13:01:11;;;;;;;1.23;1.13;;;20.00;75.60;;;;;;5012371;28;20420;-71
2022/05/31 13:03:42;;;;;;;1.00;0.90;;;20.80;77.80;;;;;;5012721;28;20418;-71
2022/05/31 13:06:10;;;;;;;2.27;1.17;;;20.80;74.40;;;;;;5012099;28;20950;-71
2022/05/31 13:09:17;;;;;;;1.00;0.97;;;20.60;72.70;;;;;;5012287;28;20430;-71
2022/05/31 13:20:44;;;;;;;1.10;1.03;;;20.10;75.90;;;;;;5012486;28;20463;-71
2022/05/31 13:23:20;;;;;;;1.13;1.03;;;19.70;75.80;;;;;;5011961;28;20812;-70
2022/05/31 13:25:48;;;;;;;1.47;1.37;;;20.30;78.00;;;;;;5011663;28;20485;-70
2022/05/31 13:28:35;;;;;;;1.57;1.43;;;20.60;74.90;;;;;;5011977;28;20428;-70
2022/05/31 13:31:23;;;;;;;1.30;1.03;;;20.70;73.00;;;;;;5011899;28;20431;-70
2022/05/31 13:33:57;;;;;;;1.30;1.20;;;20.90;74.40;;;;;;5011341;28;20895;-71
2022/05/31 13:36:25;;;;;;;1.77;1.10;;;20.60;74.60;;;;;;5011662;28;20407;-70
2022/05/31 13:38:56;;;;;;;2.07;1.07;;;20.30;76.20;;;;;;5011754;28;20437;-70
2022/05/31 13:41:22;;;;;;;1.27;1.10;;;20.20;77.60;;;;;;5011636;28;20428;-70
2022/05/31 13:43:48;;;;;;;1.10;0.93;;;20.20;77.10;;;;;;5013797;28;20897;-70
2022/05/31 13:46:45;;;;;;;1.27;1.10;;;20.30;78.70;;;;;;5015584;28;20208;-70